sensor_id;sensor_type;location;lat;lon;timestamp;pressure;altitude;pressure_sealevel;temperature
77789;BMP280;66980;44.384;0.512;2023-02-01T00:01:56;102886.41;;;20.30
77789;BMP280;66980;44.384;0.512;2023-02-01T00:04:22;102892.66;;;20.31
77789;BMP280;66980;44.384;0.512;2023-02-01T00:06:47;102884.91;;;20.29
77789;BMP280;66980;44.384;0.512;2023-02-01T00:09:13;102884.63;;;20.27
77789;BMP280;66980;44.384;0.512;2023-02-01T00:11:39;102875.56;;;20.27
77789;BMP280;66980;44.384;0.512;2023-02-01T00:14:04;102882.13;;;20.24
77789;BMP280;66980;44.384;0.512;2023-02-01T00:16:30;102877.81;;;20.23
77789;BMP280;66980;44.384;0.512;2023-02-01T00:18:59;102879.88;;;20.22
77789;BMP280;66980;44.384;0.512;2023-02-01T00:21:26;102874.06;;;20.20
77789;BMP280;66980;44.384;0.512;2023-02-01T00:23:51;102872.56;;;20.19
77789;BMP280;66980;44.384;0.512;2023-02-01T00:26:19;102866.81;;;20.17
77789;BMP280;66980;44.384;0.512;2023-02-01T00:28:45;102867.78;;;20.14
77789;BMP280;66980;44.384;0.512;2023-02-01T00:31:11;102864.31;;;20.13
77789;BMP280;66980;44.384;0.512;2023-02-01T00:33:37;102876.59;;;20.12
77789;BMP280;66980;44.384;0.512;2023-02-01T00:36:05;102869.56;;;20.11
77789;BMP280;66980;44.384;0.512;2023-02-01T00:38:32;102876.31;;;20.10
77789;BMP280;66980;44.384;0.512;2023-02-01T00:41:15;102872.56;;;20.08
77789;BMP280;66980;44.384;0.512;2023-02-01T00:43:42;102866.28;;;20.07
77789;BMP280;66980;44.384;0.512;2023-02-01T00:46:08;102862.53;;;20.05
77789;BMP280;66980;44.384;0.512;2023-02-01T00:48:34;102861.00;;;20.04
77789;BMP280;66980;44.384;0.512;2023-02-01T00:51:01;102857.97;;;20.02
77789;BMP280;66980;44.384;0.512;2023-02-01T00:53:27;102850.97;;;20.01
77789;BMP280;66980;44.384;0.512;2023-02-01T00:55:53;102854.22;;;19.99
77789;BMP280;66980;44.384;0.512;2023-02-01T00:58:18;102855.50;;;19.98
77789;BMP280;66980;44.384;0.512;2023-02-01T01:00:44;102856.47;;;19.95
77789;BMP280;66980;44.384;0.512;2023-02-01T01:03:10;102852.69;;;19.92
77789;BMP280;66980;44.384;0.512;2023-02-01T01:05:45;102853.44;;;19.93
77789;BMP280;66980;44.384;0.512;2023-02-01T01:08:11;102842.97;;;19.91
77789;BMP280;66980;44.384;0.512;2023-02-01T01:10:36;102849.69;;;19.90
77789;BMP280;66980;44.384;0.512;2023-02-01T01:13:02;102857.72;;;19.88
77789;BMP280;66980;44.384;0.512;2023-02-01T01:15:27;102859.47;;;19.86
77789;BMP280;66980;44.384;0.512;2023-02-01T01:17:53;102857.94;;;19.85
77789;BMP280;66980;44.384;0.512;2023-02-01T01:20:19;102856.44;;;19.84
77789;BMP280;66980;44.384;0.512;2023-02-01T01:22:47;102854.19;;;19.82
77789;BMP280;66980;44.384;0.512;2023-02-01T01:25:13;102853.44;;;19.82
77789;BMP280;66980;44.384;0.512;2023-02-01T01:27:38;102854.44;;;19.79
77789;BMP280;66980;44.384;0.512;2023-02-01T01:30:04;102849.66;;;19.79
77789;BMP280;66980;44.384;0.512;2023-02-01T01:32:33;102840.41;;;19.77
77789;BMP280;66980;44.384;0.512;2023-02-01T01:34:58;102851.91;;;19.75
77789;BMP280;66980;44.384;0.512;2023-02-01T01:37:24;102841.88;;;19.72
77789;BMP280;66980;44.384;0.512;2023-02-01T01:39:49;102847.38;;;19.72
77789;BMP280;66980;44.384;0.512;2023-02-01T01:42:15;102854.16;;;19.71
77789;BMP280;66980;44.384;0.512;2023-02-01T01:45:05;102849.16;;;19.69
77789;BMP280;66980;44.384;0.512;2023-02-01T01:47:35;102858.66;;;19.68
77789;BMP280;66980;44.384;0.512;2023-02-01T01:50:03;102848.13;;;19.67
77789;BMP280;66980;44.384;0.512;2023-02-01T01:52:29;102856.88;;;19.65
77789;BMP280;66980;44.384;0.512;2023-02-01T01:54:55;102858.16;;;19.64
77789;BMP280;66980;44.384;0.512;2023-02-01T01:57:32;102855.88;;;19.63
77789;BMP280;66980;44.384;0.512;2023-02-01T02:00:08;102848.88;;;19.62
77789;BMP280;66980;44.384;0.512;2023-02-01T02:02:36;102852.13;;;19.60
77789;BMP280;66980;44.384;0.512;2023-02-01T02:05:02;102858.84;;;19.59
77789;BMP280;66980;44.384;0.512;2023-02-01T02:07:31;102852.31;;;19.57
77789;BMP280;66980;44.384;0.512;2023-02-01T02:09:57;102866.09;;;19.57
77789;BMP280;66980;44.384;0.512;2023-02-01T02:12:23;102856.84;;;19.54
77789;BMP280;66980;44.384;0.512;2023-02-01T02:14:49;102861.59;;;19.54
77789;BMP280;66980;44.384;0.512;2023-02-01T02:17:31;102859.31;;;19.52
77789;BMP280;66980;44.384;0.512;2023-02-01T02:20:27;102860.31;;;19.49
77789;BMP280;66980;44.384;0.512;2023-02-01T02:32:05;102864.31;;;19.48
77789;BMP280;66980;44.384;0.512;2023-02-01T02:37:39;102868.06;;;19.45
77789;BMP280;66980;44.384;0.512;2023-02-01T02:40:18;102867.06;;;19.42
77789;BMP280;66980;44.384;0.512;2023-02-01T02:49:11;102871.28;;;19.38
77789;BMP280;66980;44.384;0.512;2023-02-01T02:54:39;102865.97;;;19.34
77789;BMP280;66980;44.384;0.512;2023-02-01T02:57:15;102864.50;;;19.33
77789;BMP280;66980;44.384;0.512;2023-02-01T03:00:03;102857.47;;;19.32
77789;BMP280;66980;44.384;0.512;2023-02-01T03:02:48;102860.72;;;19.31
77789;BMP280;66980;44.384;0.512;2023-02-01T03:05:36;102856.44;;;19.30
77789;BMP280;66980;44.384;0.512;2023-02-01T03:13:58;102860.22;;;19.27
77789;BMP280;66980;44.384;0.512;2023-02-01T03:16:33;102862.97;;;19.27
77789;BMP280;66980;44.384;0.512;2023-02-01T03:21:41;102861.97;;;19.24
77789;BMP280;66980;44.384;0.512;2023-02-01T03:24:18;102869.44;;;19.24
77789;BMP280;66980;44.384;0.512;2023-02-01T03:26:53;102872.69;;;19.22
77789;BMP280;66980;44.384;0.512;2023-02-01T03:29:24;102862.16;;;19.20
77789;BMP280;66980;44.384;0.512;2023-02-01T03:31:52;102861.91;;;19.18
77789;BMP280;66980;44.384;0.512;2023-02-01T03:34:18;102863.13;;;19.17
77789;BMP280;66980;44.384;0.512;2023-02-01T03:36:59;102867.16;;;19.16
77789;BMP280;66980;44.384;0.512;2023-02-01T03:39:29;102867.91;;;19.17
77789;BMP280;66980;44.384;0.512;2023-02-01T03:41:59;102864.13;;;19.14
77789;BMP280;66980;44.384;0.512;2023-02-01T03:44:32;102864.63;;;19.13
77789;BMP280;66980;44.384;0.512;2023-02-01T03:47:13;102863.88;;;19.12
77789;BMP280;66980;44.384;0.512;2023-02-01T03:50:05;102857.34;;;19.10
77789;BMP280;66980;44.384;0.512;2023-02-01T03:55:07;102864.59;;;19.07
77789;BMP280;66980;44.384;0.512;2023-02-01T03:57:55;102852.06;;;19.06
77789;BMP280;66980;44.384;0.512;2023-02-01T04:00:25;102872.59;;;19.05
77789;BMP280;66980;44.384;0.512;2023-02-01T04:02:52;102863.56;;;19.05
77789;BMP280;66980;44.384;0.512;2023-02-01T04:05:17;102859.78;;;19.02
77789;BMP280;66980;44.384;0.512;2023-02-01T04:07:43;102865.28;;;19.02
77789;BMP280;66980;44.384;0.512;2023-02-01T04:10:10;102860.28;;;19.01
77789;BMP280;66980;44.384;0.512;2023-02-01T04:12:35;102865.53;;;18.99
77789;BMP280;66980;44.384;0.512;2023-02-01T04:15:01;102861.25;;;18.98
77789;BMP280;66980;44.384;0.512;2023-02-01T04:17:28;102863.28;;;18.97
77789;BMP280;66980;44.384;0.512;2023-02-01T04:19:54;102856.25;;;18.96
77789;BMP280;66980;44.384;0.512;2023-02-01T04:22:19;102856.75;;;18.94
77789;BMP280;66980;44.384;0.512;2023-02-01T04:24:45;102857.22;;;18.93
77789;BMP280;66980;44.384;0.512;2023-02-01T04:27:10;102870.97;;;18.93
77789;BMP280;66980;44.384;0.512;2023-02-01T04:29:36;102875.00;;;18.92
77789;BMP280;66980;44.384;0.512;2023-02-01T04:32:01;102871.97;;;18.90
77789;BMP280;66980;44.384;0.512;2023-02-01T04:34:26;102868.44;;;18.89
77789;BMP280;66980;44.384;0.512;2023-02-01T04:36:52;102868.94;;;18.88
77789;BMP280;66980;44.384;0.512;2023-02-01T04:39:18;102868.69;;;18.86
77789;BMP280;66980;44.384;0.512;2023-02-01T04:41:43;102870.69;;;18.85
77789;BMP280;66980;44.384;0.512;2023-02-01T04:44:17;102876.66;;;18.84
77789;BMP280;66980;44.384;0.512;2023-02-01T04:46:43;102869.94;;;18.85
77789;BMP280;66980;44.384;0.512;2023-02-01T04:49:09;102870.94;;;18.82
77789;BMP280;66980;44.384;0.512;2023-02-01T04:51:35;102863.13;;;18.80
77789;BMP280;66980;44.384;0.512;2023-02-01T04:54:01;102867.91;;;18.80
77789;BMP280;66980;44.384;0.512;2023-02-01T04:56:26;102874.66;;;18.79
77789;BMP280;66980;44.384;0.512;2023-02-01T04:58:52;102878.66;;;18.78
77789;BMP280;66980;44.384;0.512;2023-02-01T05:01:17;102883.38;;;18.77
77789;BMP280;66980;44.384;0.512;2023-02-01T05:03:43;102882.34;;;18.75
77789;BMP280;66980;44.384;0.512;2023-02-01T05:06:08;102887.09;;;18.74
77789;BMP280;66980;44.384;0.512;2023-02-01T05:08:34;102886.38;;;18.74
77789;BMP280;66980;44.384;0.512;2023-02-01T05:10:59;102886.84;;;18.72
77789;BMP280;66980;44.384;0.512;2023-02-01T05:13:28;102883.34;;;18.71
77789;BMP280;66980;44.384;0.512;2023-02-01T05:16:12;102886.56;;;18.70
77789;BMP280;66980;44.384;0.512;2023-02-01T05:18:38;102888.56;;;18.69
77789;BMP280;66980;44.384;0.512;2023-02-01T05:21:03;102885.31;;;18.71
77789;BMP280;66980;44.384;0.512;2023-02-01T05:23:29;102891.81;;;18.68
77789;BMP280;66980;44.384;0.512;2023-02-01T05:26:00;102888.56;;;18.69
77789;BMP280;66980;44.384;0.512;2023-02-01T05:28:27;102889.81;;;18.68
77789;BMP280;66980;44.384;0.512;2023-02-01T05:30:52;102892.28;;;18.66
77789;BMP280;66980;44.384;0.512;2023-02-01T05:33:18;102892.78;;;18.65
77789;BMP280;66980;44.384;0.512;2023-02-01T05:35:43;102893.28;;;18.63
77789;BMP280;66980;44.384;0.512;2023-02-01T05:38:09;102902.75;;;18.62
77789;BMP280;66980;44.384;0.512;2023-02-01T05:40:34;102902.00;;;18.62
77789;BMP280;66980;44.384;0.512;2023-02-01T05:43:00;102904.75;;;18.62
77789;BMP280;66980;44.384;0.512;2023-02-01T05:45:25;102903.25;;;18.61
77789;BMP280;66980;44.384;0.512;2023-02-01T05:47:51;102912.03;;;18.65
77789;BMP280;66980;44.384;0.512;2023-02-01T05:50:16;102910.25;;;18.62
77789;BMP280;66980;44.384;0.512;2023-02-01T05:52:42;102907.25;;;18.60
77789;BMP280;66980;44.384;0.512;2023-02-01T05:55:08;102900.25;;;18.59
77789;BMP280;66980;44.384;0.512;2023-02-01T05:57:33;102904.22;;;18.58
77789;BMP280;66980;44.384;0.512;2023-02-01T05:59:59;102908.97;;;18.57
77789;BMP280;66980;44.384;0.512;2023-02-01T06:02:24;102906.22;;;18.57
77789;BMP280;66980;44.384;0.512;2023-02-01T06:04:50;102909.25;;;18.59
77789;BMP280;66980;44.384;0.512;2023-02-01T06:07:16;102911.50;;;18.61
77789;BMP280;66980;44.384;0.512;2023-02-01T06:09:41;102914.56;;;18.68
77789;BMP280;66980;44.384;0.512;2023-02-01T06:12:07;102917.56;;;18.70
77789;BMP280;66980;44.384;0.512;2023-02-01T06:14:32;102914.50;;;18.89
77789;BMP280;66980;44.384;0.512;2023-02-01T06:16:58;102918.72;;;19.16
77789;BMP280;66980;44.384;0.512;2023-02-01T06:19:23;102918.59;;;19.36
77789;BMP280;66980;44.384;0.512;2023-02-01T06:21:49;102909.72;;;19.58
77789;BMP280;66980;44.384;0.512;2023-02-01T06:24:15;102912.81;;;19.77
77789;BMP280;66980;44.384;0.512;2023-02-01T06:26:40;102915.63;;;20.00
77789;BMP280;66980;44.384;0.512;2023-02-01T06:29:15;102922.22;;;20.13
77789;BMP280;66980;44.384;0.512;2023-02-01T06:31:40;102917.22;;;20.29
77789;BMP280;66980;44.384;0.512;2023-02-01T06:34:07;102930.31;;;20.51
77789;BMP280;66980;44.384;0.512;2023-02-01T06:36:32;102930.31;;;20.73
77789;BMP280;66980;44.384;0.512;2023-02-01T06:38:58;102928.78;;;21.00
77789;BMP280;66980;44.384;0.512;2023-02-01T06:41:25;102931.03;;;21.13
77789;BMP280;66980;44.384;0.512;2023-02-01T06:43:51;102938.31;;;21.27
77789;BMP280;66980;44.384;0.512;2023-02-01T06:46:16;102934.50;;;21.41
77789;BMP280;66980;44.384;0.512;2023-02-01T06:48:42;102933.47;;;21.56
77789;BMP280;66980;44.384;0.512;2023-02-01T06:51:27;102936.44;;;21.63
77789;BMP280;66980;44.384;0.512;2023-02-01T06:53:53;102929.13;;;21.72
77789;BMP280;66980;44.384;0.512;2023-02-01T06:56:19;102938.38;;;21.80
77789;BMP280;66980;44.384;0.512;2023-02-01T06:58:45;102928.03;;;21.86
77789;BMP280;66980;44.384;0.512;2023-02-01T07:01:11;102935.06;;;21.87
77789;BMP280;66980;44.384;0.512;2023-02-01T07:03:37;102933.81;;;21.88
77789;BMP280;66980;44.384;0.512;2023-02-01T07:06:03;102924.00;;;21.92
77789;BMP280;66980;44.384;0.512;2023-02-01T07:08:31;102930.63;;;22.14
77789;BMP280;66980;44.384;0.512;2023-02-01T07:11:01;102931.09;;;22.24
77789;BMP280;66980;44.384;0.512;2023-02-01T07:13:27;102939.91;;;22.22
77789;BMP280;66980;44.384;0.512;2023-02-01T07:15:52;102949.81;;;22.01
77789;BMP280;66980;44.384;0.512;2023-02-01T07:18:18;102945.44;;;21.69
77789;BMP280;66980;44.384;0.512;2023-02-01T07:20:49;102944.13;;;21.87
77789;BMP280;66980;44.384;0.512;2023-02-01T07:23:15;102944.56;;;22.03
77789;BMP280;66980;44.384;0.512;2023-02-01T07:25:40;102945.75;;;22.13
77789;BMP280;66980;44.384;0.512;2023-02-01T07:28:06;102963.56;;;22.23
77789;BMP280;66980;44.384;0.512;2023-02-01T07:30:31;102960.22;;;22.30
77789;BMP280;66980;44.384;0.512;2023-02-01T07:32:57;102962.97;;;22.36
77789;BMP280;66980;44.384;0.512;2023-02-01T07:35:27;102974.97;;;22.44
77789;BMP280;66980;44.384;0.512;2023-02-01T07:37:52;102976.72;;;22.47
77789;BMP280;66980;44.384;0.512;2023-02-01T07:40:18;102968.38;;;22.53
77789;BMP280;66980;44.384;0.512;2023-02-01T07:42:43;102972.88;;;22.56
77789;BMP280;66980;44.384;0.512;2023-02-01T07:45:09;102980.94;;;22.59
77789;BMP280;66980;44.384;0.512;2023-02-01T07:47:34;102971.31;;;22.60
77789;BMP280;66980;44.384;0.512;2023-02-01T07:50:00;102974.28;;;22.68
77789;BMP280;66980;44.384;0.512;2023-02-01T07:52:28;102977.03;;;22.74
77789;BMP280;66980;44.384;0.512;2023-02-01T07:54:54;102984.53;;;22.79
77789;BMP280;66980;44.384;0.512;2023-02-01T07:57:19;102994.56;;;22.82
77789;BMP280;66980;44.384;0.512;2023-02-01T07:59:45;102984.25;;;22.82
77789;BMP280;66980;44.384;0.512;2023-02-01T08:02:28;102991.53;;;22.80
77789;BMP280;66980;44.384;0.512;2023-02-01T08:04:54;102998.59;;;22.81
77789;BMP280;66980;44.384;0.512;2023-02-01T08:07:19;103001.88;;;22.79
77789;BMP280;66980;44.384;0.512;2023-02-01T08:09:45;103001.16;;;22.79
77789;BMP280;66980;44.384;0.512;2023-02-01T08:12:11;102995.63;;;22.79
77789;BMP280;66980;44.384;0.512;2023-02-01T08:14:36;103007.19;;;22.77
77789;BMP280;66980;44.384;0.512;2023-02-01T08:17:02;103001.41;;;22.75
77789;BMP280;66980;44.384;0.512;2023-02-01T08:19:27;103002.72;;;22.74
77789;BMP280;66980;44.384;0.512;2023-02-01T08:21:53;103004.72;;;22.74
77789;BMP280;66980;44.384;0.512;2023-02-01T08:24:18;103009.47;;;22.73
77789;BMP280;66980;44.384;0.512;2023-02-01T08:26:44;103011.28;;;22.70
77789;BMP280;66980;44.384;0.512;2023-02-01T08:29:10;103012.31;;;22.67
77789;BMP280;66980;44.384;0.512;2023-02-01T08:31:37;103017.09;;;22.67
77789;BMP280;66980;44.384;0.512;2023-02-01T08:34:05;103018.13;;;22.64
77789;BMP280;66980;44.384;0.512;2023-02-01T08:36:33;103019.69;;;22.59
77789;BMP280;66980;44.384;0.512;2023-02-01T08:38:59;103023.69;;;22.58
77789;BMP280;66980;44.384;0.512;2023-02-01T08:41:27;103026.22;;;22.56
77789;BMP280;66980;44.384;0.512;2023-02-01T08:43:55;103036.31;;;22.54
77789;BMP280;66980;44.384;0.512;2023-02-01T08:46:21;103035.34;;;22.51
77789;BMP280;66980;44.384;0.512;2023-02-01T08:48:48;103037.09;;;22.49
77789;BMP280;66980;44.384;0.512;2023-02-01T08:51:16;103046.41;;;22.45
77789;BMP280;66980;44.384;0.512;2023-02-01T08:53:42;103042.41;;;22.41
77789;BMP280;66980;44.384;0.512;2023-02-01T08:56:09;103034.63;;;22.39
77789;BMP280;66980;44.384;0.512;2023-02-01T08:58:36;103044.47;;;22.35
77789;BMP280;66980;44.384;0.512;2023-02-01T09:01:09;103047.50;;;22.31
77789;BMP280;66980;44.384;0.512;2023-02-01T09:03:35;103050.03;;;22.29
77789;BMP280;66980;44.384;0.512;2023-02-01T09:06:03;103057.88;;;22.25
77789;BMP280;66980;44.384;0.512;2023-02-01T09:08:29;103055.34;;;22.21
77789;BMP280;66980;44.384;0.512;2023-02-01T09:11:01;103052.84;;;22.18
77789;BMP280;66980;44.384;0.512;2023-02-01T09:13:27;103059.91;;;22.13
77789;BMP280;66980;44.384;0.512;2023-02-01T09:15:53;103069.50;;;22.12
77789;BMP280;66980;44.384;0.512;2023-02-01T09:18:19;103066.97;;;22.09
77789;BMP280;66980;44.384;0.512;2023-02-01T09:20:45;103071.53;;;22.06
77789;BMP280;66980;44.384;0.512;2023-02-01T09:23:10;103070.25;;;22.02
77789;BMP280;66980;44.384;0.512;2023-02-01T09:25:37;103069.53;;;21.95
77789;BMP280;66980;44.384;0.512;2023-02-01T09:28:03;103078.63;;;21.96
77789;BMP280;66980;44.384;0.512;2023-02-01T09:30:32;103082.91;;;21.91
77789;BMP280;66980;44.384;0.512;2023-02-01T09:32:58;103078.88;;;21.87
77789;BMP280;66980;44.384;0.512;2023-02-01T09:35:24;103086.19;;;21.84
77789;BMP280;66980;44.384;0.512;2023-02-01T09:37:49;103097.50;;;21.81
77789;BMP280;66980;44.384;0.512;2023-02-01T09:40:16;103088.66;;;21.77
77789;BMP280;66980;44.384;0.512;2023-02-01T09:45:58;103094.00;;;21.69
77789;BMP280;66980;44.384;0.512;2023-02-01T09:48:27;103094.00;;;21.69
77789;BMP280;66980;44.384;0.512;2023-02-01T09:50:58;103107.56;;;21.61
77789;BMP280;66980;44.384;0.512;2023-02-01T09:55:51;103094.50;;;21.51
77789;BMP280;66980;44.384;0.512;2023-02-01T09:58:39;103107.59;;;21.50
77789;BMP280;66980;44.384;0.512;2023-02-01T10:01:16;103104.31;;;21.46
77789;BMP280;66980;44.384;0.512;2023-02-01T10:03:43;103099.31;;;21.28
77789;BMP280;66980;44.384;0.512;2023-02-01T10:06:49;103099.31;;;21.28
77789;BMP280;66980;44.384;0.512;2023-02-01T10:18:27;103118.63;;;21.16
77789;BMP280;66980;44.384;0.512;2023-02-01T10:21:15;103114.88;;;21.19
77789;BMP280;66980;44.384;0.512;2023-02-01T10:27:17;103119.66;;;21.36
77789;BMP280;66980;44.384;0.512;2023-02-01T10:29:48;103132.47;;;21.50
77789;BMP280;66980;44.384;0.512;2023-02-01T10:32:22;103131.19;;;21.68
77789;BMP280;66980;44.384;0.512;2023-02-01T10:34:53;103133.72;;;21.72
77789;BMP280;66980;44.384;0.512;2023-02-01T10:37:30;103135.47;;;21.75
77789;BMP280;66980;44.384;0.512;2023-02-01T10:40:00;103128.19;;;21.72
77789;BMP280;66980;44.384;0.512;2023-02-01T10:42:27;103130.16;;;21.77
77789;BMP280;66980;44.384;0.512;2023-02-01T10:44:56;103132.44;;;21.78
77789;BMP280;66980;44.384;0.512;2023-02-01T10:47:24;103130.91;;;21.83
77789;BMP280;66980;44.384;0.512;2023-02-01T10:52:36;103118.84;;;21.91
77789;BMP280;66980;44.384;0.512;2023-02-01T10:58:29;103116.03;;;22.03
77789;BMP280;66980;44.384;0.512;2023-02-01T11:01:02;103113.53;;;21.99
77789;BMP280;66980;44.384;0.512;2023-02-01T11:04:02;103113.53;;;21.99
77789;BMP280;66980;44.384;0.512;2023-02-01T11:09:18;103110.75;;;22.05
77789;BMP280;66980;44.384;0.512;2023-02-01T11:11:53;103112.25;;;22.11
77789;BMP280;66980;44.384;0.512;2023-02-01T11:20:12;103101.13;;;22.28
77789;BMP280;66980;44.384;0.512;2023-02-01T11:22:32;103102.81;;;22.42
77789;BMP280;66980;44.384;0.512;2023-02-01T11:24:59;103095.50;;;22.51
77789;BMP280;66980;44.384;0.512;2023-02-01T11:27:27;103094.44;;;22.54
77789;BMP280;66980;44.384;0.512;2023-02-01T11:29:57;103086.13;;;22.59
77789;BMP280;66980;44.384;0.512;2023-02-01T11:32:26;103089.13;;;22.61
77789;BMP280;66980;44.384;0.512;2023-02-01T11:34:56;103092.38;;;22.60
77789;BMP280;66980;44.384;0.512;2023-02-01T11:37:38;103084.59;;;22.58
77789;BMP280;66980;44.384;0.512;2023-02-01T11:42:54;103081.88;;;22.53
77789;BMP280;66980;44.384;0.512;2023-02-01T11:45:30;103075.06;;;22.59
77789;BMP280;66980;44.384;0.512;2023-02-01T11:47:57;103073.47;;;22.69
77789;BMP280;66980;44.384;0.512;2023-02-01T11:54:02;103058.56;;;22.78
77789;BMP280;66980;44.384;0.512;2023-02-01T12:02:19;103046.38;;;22.87
77789;BMP280;66980;44.384;0.512;2023-02-01T12:10:50;103047.63;;;22.91
77789;BMP280;66980;44.384;0.512;2023-02-01T12:16:38;103039.09;;;22.89
77789;BMP280;66980;44.384;0.512;2023-02-01T12:22:20;103027.56;;;22.80
77789;BMP280;66980;44.384;0.512;2023-02-01T12:25:21;103039.69;;;22.77
77789;BMP280;66980;44.384;0.512;2023-02-01T12:33:04;103022.38;;;22.65
77789;BMP280;66980;44.384;0.512;2023-02-01T12:46:24;103025.16;;;22.65
77789;BMP280;66980;44.384;0.512;2023-02-01T12:49:03;103009.59;;;22.62
77789;BMP280;66980;44.384;0.512;2023-02-01T12:51:35;103017.63;;;22.65
77789;BMP280;66980;44.384;0.512;2023-02-01T12:54:22;103011.47;;;22.78
77789;BMP280;66980;44.384;0.512;2023-02-01T12:56:57;103005.94;;;22.78
77789;BMP280;66980;44.384;0.512;2023-02-01T12:59:37;103000.16;;;22.76
77789;BMP280;66980;44.384;0.512;2023-02-01T13:02:19;102994.91;;;22.72
77789;BMP280;66980;44.384;0.512;2023-02-01T13:07:27;102993.56;;;22.79
77789;BMP280;66980;44.384;0.512;2023-02-01T13:10:00;102989.03;;;22.82
77789;BMP280;66980;44.384;0.512;2023-02-01T13:12:40;102988.50;;;22.83
77789;BMP280;66980;44.384;0.512;2023-02-01T13:15:16;102981.19;;;22.86
77789;BMP280;66980;44.384;0.512;2023-02-01T13:17:43;102979.91;;;22.87
77789;BMP280;66980;44.384;0.512;2023-02-01T13:22:47;102976.66;;;22.88
77789;BMP280;66980;44.384;0.512;2023-02-01T13:27:55;102956.50;;;22.88
77789;BMP280;66980;44.384;0.512;2023-02-01T13:30:25;102950.44;;;22.89
77789;BMP280;66980;44.384;0.512;2023-02-01T13:38:43;102943.19;;;22.86
77789;BMP280;66980;44.384;0.512;2023-02-01T13:41:24;102937.09;;;22.88
77789;BMP280;66980;44.384;0.512;2023-02-01T13:43:57;102942.13;;;22.89
77789;BMP280;66980;44.384;0.512;2023-02-01T13:46:24;102937.56;;;22.92
77789;BMP280;66980;44.384;0.512;2023-02-01T13:48:54;102943.22;;;22.81
77789;BMP280;66980;44.384;0.512;2023-02-01T13:51:45;102941.63;;;22.91
77789;BMP280;66980;44.384;0.512;2023-02-01T13:54:31;102941.63;;;22.91
77789;BMP280;66980;44.384;0.512;2023-02-01T13:57:02;102935.75;;;22.94
77789;BMP280;66980;44.384;0.512;2023-02-01T14:10:57;102930.97;;;22.70
77789;BMP280;66980;44.384;0.512;2023-02-01T14:26:26;102916.78;;;22.55
77789;BMP280;66980;44.384;0.512;2023-02-01T14:28:57;102921.78;;;22.57
77789;BMP280;66980;44.384;0.512;2023-02-01T14:31:39;102919.75;;;22.57
77789;BMP280;66980;44.384;0.512;2023-02-01T14:37:00;102911.41;;;22.63
77789;BMP280;66980;44.384;0.512;2023-02-01T14:39:34;102910.38;;;22.66
77789;BMP280;66980;44.384;0.512;2023-02-01T14:42:18;102899.81;;;22.64
77789;BMP280;66980;44.384;0.512;2023-02-01T14:44:49;102914.41;;;22.65
77789;BMP280;66980;44.384;0.512;2023-02-01T14:47:29;102922.97;;;22.67
77789;BMP280;66980;44.384;0.512;2023-02-01T14:55:42;102924.41;;;22.74
77789;BMP280;66980;44.384;0.512;2023-02-01T14:58:40;102928.69;;;22.75
77789;BMP280;66980;44.384;0.512;2023-02-01T15:01:23;102928.31;;;22.84
77789;BMP280;66980;44.384;0.512;2023-02-01T15:03:53;102918.19;;;22.92
77789;BMP280;66980;44.384;0.512;2023-02-01T15:14:34;102910.91;;;22.89
77789;BMP280;66980;44.384;0.512;2023-02-01T15:17:00;102907.97;;;22.81
77789;BMP280;66980;44.384;0.512;2023-02-01T15:19:29;102905.19;;;22.81
77789;BMP280;66980;44.384;0.512;2023-02-01T15:21:57;102895.69;;;22.77
77789;BMP280;66980;44.384;0.512;2023-02-01T15:24:28;102898.69;;;22.79
77789;BMP280;66980;44.384;0.512;2023-02-01T15:27:05;102902.47;;;22.76
77789;BMP280;66980;44.384;0.512;2023-02-01T15:29:33;102899.50;;;22.74
77789;BMP280;66980;44.384;0.512;2023-02-01T15:32:00;102899.19;;;22.77
77789;BMP280;66980;44.384;0.512;2023-02-01T15:34:45;102901.47;;;22.79
77789;BMP280;66980;44.384;0.512;2023-02-01T15:37:13;102896.91;;;22.76
77789;BMP280;66980;44.384;0.512;2023-02-01T15:42:34;102903.75;;;22.75
77789;BMP280;66980;44.384;0.512;2023-02-01T15:45:25;102905.03;;;22.74
77789;BMP280;66980;44.384;0.512;2023-02-01T15:47:54;102900.53;;;22.70
77789;BMP280;66980;44.384;0.512;2023-02-01T15:50:22;102893.25;;;22.67
77789;BMP280;66980;44.384;0.512;2023-02-01T15:52:53;102905.06;;;22.68
77789;BMP280;66980;44.384;0.512;2023-02-01T15:57:58;102901.41;;;22.54
77789;BMP280;66980;44.384;0.512;2023-02-01T16:00:30;102907.06;;;22.43
77789;BMP280;66980;44.384;0.512;2023-02-01T16:03:04;102913.38;;;22.38
77789;BMP280;66980;44.384;0.512;2023-02-01T16:05:34;102908.34;;;22.36
77789;BMP280;66980;44.384;0.512;2023-02-01T16:08:10;102901.31;;;22.35
77789;BMP280;66980;44.384;0.512;2023-02-01T16:10:42;102905.53;;;22.42
77789;BMP280;66980;44.384;0.512;2023-02-01T16:13:12;102904.88;;;22.36
77789;BMP280;66980;44.384;0.512;2023-02-01T16:15:38;102915.72;;;22.28
77789;BMP280;66980;44.384;0.512;2023-02-01T16:18:04;102928.03;;;22.27
77789;BMP280;66980;44.384;0.512;2023-02-01T16:20:30;102930.81;;;22.27
77789;BMP280;66980;44.384;0.512;2023-02-01T16:22:56;102924.03;;;22.23
77789;BMP280;66980;44.384;0.512;2023-02-01T16:25:21;102942.41;;;22.26
77789;BMP280;66980;44.384;0.512;2023-02-01T16:27:47;102937.88;;;22.23
77789;BMP280;66980;44.384;0.512;2023-02-01T16:30:13;102933.69;;;22.10
77789;BMP280;66980;44.384;0.512;2023-02-01T16:32:39;102935.50;;;22.02
77789;BMP280;66980;44.384;0.512;2023-02-01T16:35:10;102936.47;;;22.05
77789;BMP280;66980;44.384;0.512;2023-02-01T16:37:38;102943.28;;;22.04
77789;BMP280;66980;44.384;0.512;2023-02-01T16:40:04;102938.53;;;22.04
77789;BMP280;66980;44.384;0.512;2023-02-01T16:42:31;102941.78;;;22.03
77789;BMP280;66980;44.384;0.512;2023-02-01T16:44:57;102938.53;;;22.04
77789;BMP280;66980;44.384;0.512;2023-02-01T16:47:22;102949.81;;;22.01
77789;BMP280;66980;44.384;0.512;2023-02-01T16:49:48;102951.63;;;21.98
77789;BMP280;66980;44.384;0.512;2023-02-01T16:52:19;102954.16;;;21.96
77789;BMP280;66980;44.384;0.512;2023-02-01T16:54:46;102957.41;;;21.94
77789;BMP280;66980;44.384;0.512;2023-02-01T16:57:14;102954.91;;;21.91